Time;durP1;ratioP1;P1;durP2;ratioP2;P2;SDS_P1;SDS_P2;PMS_P1;PMS_P2;Temp;Humidity;BMP_temperature;BMP_pressure;BME280_temperature;BME280_humidity;BME280_pressure;Samples;Min_cycle;Max_cycle;Signal;HPM_P1;HPM_P2
2023/09/17 00:00:54;;;;;;;4.82;2.80;;;;;;;17.87;62.87;101076.22;2100833;28;20139;-70
2023/09/17 00:01:56;;;;;;;7.90;3.40;;;;;;;17.86;62.92;101074.63;2098029;28;20032;-71
2023/09/17 00:03:03;;;;;;;6.53;3.42;;;;;;;17.83;62.94;101071.41;2097994;28;20148;-70
2023/09/17 00:04:06;;;;;;;8.43;3.25;;;;;;;17.83;62.83;101076.84;2105967;28;20878;-71
2023/09/17 00:05:08;;;;;;;10.35;3.20;;;;;;;17.80;63.23;101063.06;2098116;28;20044;-71
2023/09/17 00:06:10;;;;;;;11.07;3.17;;;;;;;17.81;62.98;101068.22;2089191;28;20096;-70
2023/09/17 00:07:13;;;;;;;11.18;3.38;;;;;;;17.79;63.23;101070.44;2090092;28;20037;-70
2023/09/17 00:08:16;;;;;;;7.63;3.58;;;;;;;17.76;63.42;101071.03;2106437;28;20088;-71
2023/09/17 00:09:22;;;;;;;11.30;3.13;;;;;;;17.75;63.47;101063.19;2115559;27;20109;-71
2023/09/17 00:10:24;;;;;;;6.68;3.10;;;;;;;17.75;63.32;101063.19;2114324;28;20085;-71
2023/09/17 00:11:26;;;;;;;5.57;2.90;;;;;;;17.75;63.38;101064.00;2106757;28;20021;-71
2023/09/17 00:12:35;;;;;;;6.68;2.95;;;;;;;17.75;63.58;101065.91;2107122;28;20994;-71
2023/09/17 00:13:41;;;;;;;5.03;2.80;;;;;;;17.73;63.61;101068.94;2099510;28;20965;-71
2023/09/17 00:14:43;;;;;;;9.02;3.30;;;;;;;17.72;63.45;101069.25;2098840;28;20037;-71
2023/09/17 00:15:45;;;;;;;7.93;3.10;;;;;;;17.73;63.46;101068.94;2081689;28;20081;-71
2023/09/17 00:16:47;;;;;;;7.28;3.17;;;;;;;17.73;63.43;101065.41;2090258;28;20127;-71
2023/09/17 00:17:49;;;;;;;14.10;3.63;;;;;;;17.74;63.31;101067.00;2115158;28;20030;-71
2023/09/17 00:18:51;;;;;;;11.32;3.50;;;;;;;17.75;63.53;101060.47;2097740;28;20858;-71
2023/09/17 00:19:54;;;;;;;6.35;2.92;;;;;;;17.76;63.36;101062.88;2090213;28;20121;-71
2023/09/17 00:20:55;;;;;;;6.97;3.30;;;;;;;17.76;63.36;101060.16;2098086;28;20044;-71
2023/09/17 00:21:58;;;;;;;7.68;3.30;;;;;;;17.76;63.40;101060.16;2098213;28;20024;-71
2023/09/17 00:23:03;;;;;;;6.15;3.17;;;;;;;17.75;63.38;101061.28;2106576;28;20027;-71
2023/09/17 00:24:25;;;;;;;8.70;3.10;;;;;;;17.74;63.23;101056.94;2097769;28;20863;-71
2023/09/17 00:25:46;;;;;;;7.40;2.92;;;;;;;17.76;63.46;101060.16;2106460;28;20774;-71
2023/09/17 00:26:48;;;;;;;7.82;3.08;;;;;;;17.79;63.23;101058.75;2089781;28;20081;-71
2023/09/17 00:27:49;;;;;;;9.45;3.60;;;;;;;17.79;63.29;101065.00;2089945;28;20028;-71
2023/09/17 00:28:57;;;;;;;12.85;3.22;;;;;;;17.79;63.28;101059.56;2081932;28;20911;-71
2023/09/17 00:30:00;;;;;;;8.50;3.15;;;;;;;17.80;63.37;101061.16;2092496;28;20128;-71
2023/09/17 00:31:06;;;;;;;10.30;3.22;;;;;;;17.80;63.26;101055.72;2098560;28;20749;-71
2023/09/17 00:32:07;;;;;;;5.65;3.15;;;;;;;17.82;63.32;101061.66;2090303;28;20171;-71
2023/09/17 00:33:09;;;;;;;7.55;3.55;;;;;;;17.83;63.25;101057.00;2089228;28;20874;-71
2023/09/17 00:34:11;;;;;;;7.38;3.30;;;;;;;17.84;63.29;101055.88;2089375;28;20022;-71
2023/09/17 00:35:15;;;;;;;5.65;3.08;;;;;;;17.82;63.13;101056.19;2098312;28;20029;-71
2023/09/17 00:36:17;;;;;;;9.13;3.95;;;;;;;17.84;63.25;101061.31;2089727;28;20025;-71
2023/09/17 00:37:26;;;;;;;16.20;3.22;;;;;;;17.82;63.15;101058.13;2092444;28;20966;-71
2023/09/17 00:38:28;;;;;;;10.38;3.20;;;;;;;17.83;63.09;101057.78;2106677;28;20029;-71
2023/09/17 00:39:33;;;;;;;6.75;3.35;;;;;;;17.83;63.28;101060.50;2097663;28;20151;-71
2023/09/17 00:40:42;;;;;;;8.60;3.08;;;;;;;17.82;63.15;101058.91;2098739;28;20060;-71
2023/09/17 00:41:52;;;;;;;6.65;3.20;;;;;;;17.83;63.23;101059.72;2091221;28;20037;-71
2023/09/17 00:42:53;;;;;;;6.82;3.58;;;;;;;17.82;63.24;101053.47;2090523;28;20041;-71
2023/09/17 00:43:58;;;;;;;7.90;3.10;;;;;;;17.81;63.15;101057.34;2089705;28;20849;-72
2023/09/17 00:45:02;;;;;;;9.18;3.28;;;;;;;17.81;63.28;101057.34;2098318;28;20780;-71
2023/09/17 00:46:07;;;;;;;10.75;3.17;;;;;;;17.82;63.34;101055.41;2089345;28;20021;-71
2023/09/17 00:47:09;;;;;;;5.82;2.95;;;;;;;17.81;63.48;101057.34;2074359;28;20065;-71
2023/09/17 00:48:11;;;;;;;5.93;3.03;;;;;;;17.82;63.36;101053.47;2097677;28;20041;-70
2023/09/17 00:49:14;;;;;;;7.43;3.10;;;;;;;17.82;63.32;101053.47;2097866;28;20041;-71
2023/09/17 00:50:16;;;;;;;10.77;3.40;;;;;;;17.81;63.15;101054.59;2082083;28;20026;-70
2023/09/17 00:51:18;;;;;;;10.00;3.50;;;;;;;17.81;63.23;101051.88;2098520;28;20860;-70
2023/09/17 00:52:20;;;;;;;9.45;3.53;;;;;;;17.81;63.31;101057.34;2097661;28;20040;-70
2023/09/17 00:53:25;;;;;;;7.70;3.20;;;;;;;17.81;63.26;101051.88;2090666;28;20064;-71
2023/09/17 00:54:29;;;;;;;9.45;3.17;;;;;;;17.79;63.41;101048.66;2097706;28;20041;-70
2023/09/17 00:55:33;;;;;;;11.95;3.50;;;;;;;17.79;63.34;101050.59;2090599;28;20864;-71
2023/09/17 00:56:37;;;;;;;6.13;3.20;;;;;;;17.78;63.19;101052.50;2097949;28;20075;-70
2023/09/17 00:57:41;;;;;;;6.85;2.92;;;;;;;17.78;63.36;101044.34;2106426;28;20032;-70
2023/09/17 00:58:44;;;;;;;5.50;3.17;;;;;;;17.77;63.56;101050.91;2106298;28;20025;-71
2023/09/17 00:59:46;;;;;;;5.38;3.25;;;;;;;17.75;63.24;101044.97;2089864;28;20817;-70
2023/09/17 01:00:58;;;;;;;9.77;3.17;;;;;;;17.75;63.57;101047.69;2073116;28;20081;-70
2023/09/17 01:02:00;;;;;;;6.72;3.30;;;;;;;17.75;63.43;101053.13;2085877;28;20026;-70
2023/09/17 01:03:02;;;;;;;7.88;3.45;;;;;;;17.75;63.76;101047.69;2089474;28;20037;-70
2023/09/17 01:04:08;;;;;;;6.32;3.28;;;;;;;17.76;63.70;101045.75;2090175;28;20828;-70
2023/09/17 01:05:14;;;;;;;6.22;3.65;;;;;;;17.75;63.62;101042.25;2105797;28;20035;-70
2023/09/17 01:06:16;;;;;;;10.38;3.80;;;;;;;17.75;63.62;101042.25;2106681;28;20040;-71
2023/09/17 01:07:17;;;;;;;6.85;3.78;;;;;;;17.74;63.69;101046.06;2081556;28;20108;-70
2023/09/17 01:08:19;;;;;;;7.35;3.30;;;;;;;17.73;63.78;101044.47;2089349;28;20146;-70
2023/09/17 01:09:22;;;;;;;5.97;3.35;;;;;;;17.74;63.65;101046.06;2097995;28;20899;-70
2023/09/17 01:10:26;;;;;;;7.25;3.50;;;;;;;17.73;63.81;101049.91;2099912;27;20118;-71
2023/09/17 01:11:29;;;;;;;9.23;3.50;;;;;;;17.71;63.71;101041.25;2114545;28;20135;-70
2023/09/17 01:12:31;;;;;;;7.68;3.10;;;;;;;17.72;63.74;101042.88;2090179;28;20049;-71
2023/09/17 01:13:51;;;;;;;11.38;3.70;;;;;;;17.73;63.78;101041.75;2092118;28;20056;-70
2023/09/17 01:14:56;;;;;;;5.13;3.35;;;;;;;17.72;63.86;101040.16;2108774;28;20870;-70
2023/09/17 01:16:05;;;;;;;6.63;3.40;;;;;;;17.72;63.88;101042.88;2090356;28;20029;-70
2023/09/17 01:17:11;;;;;;;8.20;3.67;;;;;;;17.72;64.05;101042.88;2084555;28;20053;-71
2023/09/17 01:18:13;;;;;;;6.10;3.70;;;;;;;17.71;63.98;101035.81;2092102;28;20815;-71
2023/09/17 01:19:22;;;;;;;7.00;3.22;;;;;;;17.70;64.03;101036.94;2091042;28;20849;-71
2023/09/17 01:20:29;;;;;;;5.70;3.28;;;;;;;17.70;64.01;101038.84;2100425;28;20875;-71
2023/09/17 01:21:36;;;;;;;7.25;3.47;;;;;;;17.69;63.96;101035.34;2099839;28;20032;-71
2023/09/17 01:22:44;;;;;;;5.28;3.50;;;;;;;17.69;64.26;101038.06;2092695;28;20033;-71
2023/09/17 01:23:58;;;;;;;6.22;3.00;;;;;;;17.69;64.22;101031.81;2101079;28;20788;-71
2023/09/17 01:25:23;;;;;;;7.13;3.40;;;;;;;17.70;64.34;101038.84;2098678;28;20144;-71
2023/09/17 01:26:30;;;;;;;5.63;3.55;;;;;;;17.68;64.35;101031.00;2090946;28;20140;-70
2023/09/17 01:27:33;;;;;;;8.57;3.47;;;;;;;17.68;64.34;101035.63;2092953;28;20037;-70
2023/09/17 01:28:40;;;;;;;8.68;3.67;;;;;;;17.68;64.60;101031.00;2101052;28;20021;-70
2023/09/17 01:29:49;;;;;;;15.30;3.90;;;;;;;17.69;64.34;101038.06;2091336;28;20043;-70
2023/09/17 01:30:55;;;;;;;8.50;3.25;;;;;;;17.70;64.44;101033.41;2095103;28;20041;-70
2023/09/17 01:31:57;;;;;;;11.05;3.88;;;;;;;17.69;64.52;101027.19;2107952;28;20146;-70
2023/09/17 01:33:00;;;;;;;7.90;3.80;;;;;;;17.69;64.34;101027.19;2099582;28;20021;-70
2023/09/17 01:34:03;;;;;;;7.30;4.18;;;;;;;17.70;64.54;101033.41;2100027;28;20114;-70
2023/09/17 01:35:13;;;;;;;8.00;3.65;;;;;;;17.69;64.65;101032.63;2107376;28;20147;-70
2023/09/17 01:36:42;;;;;;;6.60;3.78;;;;;;;17.68;64.85;101032.91;2091938;28;20029;-70
2023/09/17 01:37:52;;;;;;;5.72;3.20;;;;;;;17.67;64.87;101026.69;2089860;28;20033;-71
2023/09/17 01:39:05;;;;;;;4.88;3.25;;;;;;;17.66;64.88;101033.25;2093582;28;20023;-70
2023/09/17 01:40:10;;;;;;;7.35;3.65;;;;;;;17.66;65.00;101030.53;2101224;28;20036;-71
2023/09/17 01:41:12;;;;;;;5.90;3.33;;;;;;;17.66;64.78;101027.81;2091403;28;20068;-70
2023/09/17 01:42:20;;;;;;;8.10;3.70;;;;;;;17.67;64.85;101029.41;2082651;28;20030;-71
2023/09/17 01:43:32;;;;;;;6.28;3.53;;;;;;;17.66;64.52;101030.53;2095869;28;20022;-70
2023/09/17 01:44:34;;;;;;;7.15;3.53;;;;;;;17.67;64.79;101023.97;2090388;28;20025;-71
2023/09/17 01:45:47;;;;;;;6.53;3.75;;;;;;;17.67;64.87;101020.44;2091168;28;20076;-71
2023/09/17 01:46:52;;;;;;;7.93;3.75;;;;;;;17.66;64.80;101018.84;2092232;28;20025;-71
2023/09/17 01:47:57;;;;;;;5.68;3.70;;;;;;;17.65;64.86;101015.31;2092329;28;20180;-71
2023/09/17 01:49:03;;;;;;;10.45;3.83;;;;;;;17.65;64.90;101020.75;2083521;28;20037;-71
2023/09/17 01:50:08;;;;;;;6.68;3.75;;;;;;;17.65;65.06;101020.75;2084244;28;20077;-71
2023/09/17 01:51:11;;;;;;;7.10;3.45;;;;;;;17.65;64.99;101023.47;2090502;28;20029;-71
2023/09/17 01:52:14;;;;;;;9.95;3.70;;;;;;;17.65;65.13;101028.09;2083682;28;20022;-71
2023/09/17 01:53:16;;;;;;;7.07;3.67;;;;;;;17.65;64.92;101019.94;2090730;28;20936;-71
2023/09/17 01:54:19;;;;;;;7.82;3.83;;;;;;;17.65;65.21;101023.47;2082995;28;20142;-71
2023/09/17 01:55:22;;;;;;;6.55;3.60;;;;;;;17.67;64.85;101023.97;2090934;28;20107;-71
2023/09/17 01:56:24;;;;;;;6.85;3.60;;;;;;;17.67;65.16;101021.25;2099525;28;20024;-71
2023/09/17 01:57:31;;;;;;;6.97;3.20;;;;;;;17.68;65.28;101019.31;2098801;28;20045;-72
2023/09/17 01:58:33;;;;;;;7.40;3.90;;;;;;;17.69;65.09;101020.94;2099905;28;20753;-71
2023/09/17 01:59:36;;;;;;;6.78;3.53;;;;;;;17.70;65.21;101017.09;2090853;28;20788;-71
2023/09/17 02:00:39;;;;;;;9.70;3.85;;;;;;;17.70;65.18;101017.91;2075023;28;20042;-71
2023/09/17 02:01:42;;;;;;;7.22;3.50;;;;;;;17.68;65.05;101020.13;2082606;28;20038;-71
2023/09/17 02:02:48;;;;;;;7.30;3.58;;;;;;;17.72;65.12;101020.31;2091431;28;20021;-70
2023/09/17 02:04:00;;;;;;;6.75;3.53;;;;;;;17.72;65.36;101014.88;2090823;28;20140;-71
2023/09/17 02:05:08;;;;;;;8.02;3.95;;;;;;;17.72;65.15;101009.44;2094052;28;20025;-71
2023/09/17 02:06:09;;;;;;;8.60;3.47;;;;;;;17.72;65.17;101015.66;2091583;28;20131;-71
2023/09/17 02:07:22;;;;;;;7.45;4.15;;;;;;;17.73;65.15;101019.19;2082444;28;20034;-71
2023/09/17 02:08:28;;;;;;;6.30;3.60;;;;;;;17.74;65.07;101018.84;2085429;28;20046;-71
2023/09/17 02:09:30;;;;;;;6.53;3.60;;;;;;;17.75;65.19;101019.69;2074900;28;20029;-71
2023/09/17 02:10:31;;;;;;;5.63;3.40;;;;;;;17.74;65.07;101018.84;2082445;28;20099;-71
2023/09/17 02:11:33;;;;;;;6.28;3.70;;;;;;;17.75;65.09;101017.75;2090580;28;20026;-71
2023/09/17 02:12:34;;;;;;;7.25;3.92;;;;;;;17.76;65.20;101018.56;2090945;28;20864;-70
2023/09/17 02:13:36;;;;;;;7.13;4.15;;;;;;;17.75;65.09;101019.69;2090710;28;20032;-71
2023/09/17 02:14:39;;;;;;;7.65;4.38;;;;;;;17.74;65.19;101013.41;2090782;28;20034;-71
2023/09/17 02:15:41;;;;;;;9.13;4.10;;;;;;;17.74;65.20;101021.56;2090345;28;20100;-71
2023/09/17 02:16:43;;;;;;;7.90;4.10;;;;;;;17.73;65.22;101011.81;2090706;28;20045;-71
2023/09/17 02:17:51;;;;;;;6.50;4.00;;;;;;;17.74;65.23;101018.84;2098953;28;20017;-71
2023/09/17 02:18:57;;;;;;;6.57;3.90;;;;;;;17.73;65.26;101017.25;2099302;28;20068;-71
2023/09/17 02:20:16;;;;;;;9.43;4.32;;;;;;;17.72;65.47;101015.66;2107046;28;20047;-71
2023/09/17 02:21:18;;;;;;;9.93;3.92;;;;;;;17.73;65.17;101016.47;2090467;28;20038;-70
2023/09/17 02:22:20;;;;;;;8.75;4.00;;;;;;;17.71;65.36;101014.03;2082925;28;20030;-71
2023/09/17 02:23:22;;;;;;;6.05;3.70;;;;;;;17.71;65.39;101016.75;2098721;28;20835;-71
2023/09/17 02:24:26;;;;;;;6.65;4.00;;;;;;;17.70;65.31;101017.91;2098677;28;20076;-71
2023/09/17 02:25:30;;;;;;;7.07;4.05;;;;;;;17.70;65.34;101011.66;2091044;28;20042;-71
2023/09/17 02:26:32;;;;;;;9.63;3.80;;;;;;;17.70;65.44;101011.66;2090978;28;20072;-71
2023/09/17 02:27:39;;;;;;;6.43;3.97;;;;;;;17.69;65.43;101010.84;2098629;28;20751;-71
2023/09/17 02:28:40;;;;;;;5.93;3.63;;;;;;;17.70;65.50;101014.38;2082509;28;20018;-71
2023/09/17 02:29:42;;;;;;;7.78;3.72;;;;;;;17.69;65.61;101016.28;2090244;28;20129;-71
2023/09/17 02:30:44;;;;;;;7.43;3.83;;;;;;;17.68;65.55;101008.44;2082440;28;20159;-71
2023/09/17 02:31:46;;;;;;;8.68;3.78;;;;;;;17.71;65.77;101018.69;2090806;28;20046;-70
2023/09/17 02:32:48;;;;;;;9.60;3.88;;;;;;;17.71;65.78;101016.75;2090162;28;20122;-70
2023/09/17 02:33:50;;;;;;;8.23;3.65;;;;;;;17.72;65.70;101014.88;2098481;28;20053;-70
2023/09/17 02:34:51;;;;;;;9.23;3.78;;;;;;;17.73;65.63;101006.38;2098402;28;20040;-70
2023/09/17 02:35:55;;;;;;;6.15;3.80;;;;;;;17.73;65.73;101011.81;2090522;28;20840;-71
2023/09/17 02:36:57;;;;;;;6.05;3.80;;;;;;;17.74;65.67;101009.91;2082112;28;20875;-71
2023/09/17 02:37:58;;;;;;;9.18;3.80;;;;;;;17.74;65.58;101007.97;2082848;28;20089;-71
2023/09/17 02:39:00;;;;;;;10.02;4.07;;;;;;;17.74;65.54;101005.25;2098511;28;20018;-72
2023/09/17 02:40:04;;;;;;;6.43;4.00;;;;;;;17.73;65.63;100998.22;2090637;28;20025;-70
2023/09/17 02:41:06;;;;;;;13.50;4.45;;;;;;;17.74;65.66;101001.75;2090701;28;20140;-70
2023/09/17 02:42:10;;;;;;;7.47;3.97;;;;;;;17.73;65.69;101006.38;2083673;28;20021;-70
2023/09/17 02:43:11;;;;;;;10.20;3.97;;;;;;;17.74;65.61;100994.38;2091181;28;20037;-70
2023/09/17 02:44:15;;;;;;;8.23;4.65;;;;;;;17.74;65.70;100999.03;2081909;28;20030;-70
2023/09/17 02:45:19;;;;;;;7.45;4.00;;;;;;;17.74;65.84;101002.53;2083110;28;20026;-70
2023/09/17 02:46:23;;;;;;;7.57;3.80;;;;;;;17.75;65.67;101003.38;2092128;28;20132;-70
2023/09/17 02:47:24;;;;;;;7.25;3.75;;;;;;;17.74;65.67;100991.66;2090742;28;20025;-70
2023/09/17 02:48:26;;;;;;;8.10;4.25;;;;;;;17.76;65.55;100999.53;2098799;28;20087;-70
2023/09/17 02:49:31;;;;;;;9.15;4.10;;;;;;;17.74;65.54;100997.09;2098650;28;20111;-69
2023/09/17 02:50:33;;;;;;;9.07;4.00;;;;;;;17.74;65.43;100990.88;2098908;28;20984;-70
2023/09/17 02:51:38;;;;;;;6.68;4.00;;;;;;;17.73;65.70;101000.94;2090927;28;20910;-70
2023/09/17 02:52:39;;;;;;;7.60;4.25;;;;;;;17.73;65.73;100992.78;2091333;28;20030;-70
2023/09/17 02:53:41;;;;;;;7.55;4.43;;;;;;;17.72;65.90;100987.69;2090433;28;20844;-70
2023/09/17 02:54:42;;;;;;;8.55;4.28;;;;;;;17.73;65.77;100998.22;2090431;28;20032;-70
2023/09/17 02:55:47;;;;;;;11.07;4.50;;;;;;;17.72;65.82;100991.19;2083179;28;20034;-70
2023/09/17 02:56:49;;;;;;;8.48;4.07;;;;;;;17.72;65.86;100988.47;2098830;28;20085;-70
2023/09/17 02:57:50;;;;;;;12.77;4.30;;;;;;;17.72;65.68;100988.47;2106826;28;20025;-70
2023/09/17 02:58:58;;;;;;;12.77;4.97;;;;;;;17.72;65.94;100996.63;2098879;28;20036;-70
2023/09/17 02:59:59;;;;;;;6.47;4.03;;;;;;;17.72;65.98;100991.19;2099887;28;20134;-70
2023/09/17 03:01:17;;;;;;;7.10;4.13;;;;;;;17.72;66.01;100991.19;2086745;28;20096;-70
2023/09/17 03:02:19;;;;;;;10.43;4.43;;;;;;;17.71;66.20;100989.56;2080403;28;20039;-71
2023/09/17 03:03:22;;;;;;;10.05;4.47;;;;;;;17.70;66.28;100987.97;2090397;28;20100;-70
2023/09/17 03:04:26;;;;;;;6.63;3.92;;;;;;;17.70;66.11;100990.69;2106443;28;20037;-71
2023/09/17 03:05:28;;;;;;;10.38;4.45;;;;;;;17.69;66.09;100991.03;2090117;28;20089;-71
2023/09/17 03:06:33;;;;;;;12.00;3.83;;;;;;;17.69;66.27;100983.66;2082611;28;20871;-71
2023/09/17 03:07:35;;;;;;;8.57;4.30;;;;;;;17.70;66.34;100989.91;2084328;28;20790;-70
2023/09/17 03:08:41;;;;;;;8.57;4.40;;;;;;;17.67;66.37;100991.31;2090512;28;20044;-71
2023/09/17 03:09:43;;;;;;;7.43;4.30;;;;;;;17.69;66.42;100991.03;2083316;28;20148;-71
2023/09/17 03:11:17;;;;;;;7.70;3.95;;;;;;;17.68;66.34;100992.13;2093237;28;20025;-70
2023/09/17 03:12:21;;;;;;;6.07;4.15;;;;;;;17.65;66.33;100984.59;2101675;28;20876;-71
2023/09/17 03:13:23;;;;;;;8.75;4.40;;;;;;;17.67;66.59;100996.75;2098845;28;21167;-71
2023/09/17 03:14:26;;;;;;;8.75;4.80;;;;;;;17.65;66.44;100996.28;2098678;28;20128;-71
2023/09/17 03:15:30;;;;;;;7.03;3.97;;;;;;;17.64;66.38;100991.97;2106744;28;20036;-71
2023/09/17 03:16:33;;;;;;;7.18;4.05;;;;;;;17.63;66.57;100990.38;2106586;28;20064;-71
2023/09/17 03:17:37;;;;;;;6.70;4.07;;;;;;;17.61;66.59;100987.16;2091157;28;20848;-71
2023/09/17 03:18:58;;;;;;;8.13;4.20;;;;;;;17.61;66.63;100987.16;2099166;28;20075;-71
2023/09/17 03:20:09;;;;;;;6.20;3.88;;;;;;;17.60;66.69;100989.06;2100914;28;20028;-71
2023/09/17 03:21:12;;;;;;;8.70;4.10;;;;;;;17.59;66.58;100992.09;2092721;28;20079;-71
2023/09/17 03:22:16;;;;;;;8.18;4.32;;;;;;;17.57;66.70;100981.53;2090715;28;20026;-71
2023/09/17 03:23:18;;;;;;;6.38;4.25;;;;;;;17.57;66.80;100981.53;2107410;28;20020;-71
2023/09/17 03:24:22;;;;;;;6.57;4.40;;;;;;;17.57;66.78;100975.31;2107215;28;20074;-71
2023/09/17 03:25:26;;;;;;;8.27;4.88;;;;;;;17.56;66.87;100976.44;2106925;28;20897;-71
2023/09/17 03:26:30;;;;;;;9.43;3.97;;;;;;;17.55;66.93;100977.53;2090611;28;20068;-71
2023/09/17 03:27:45;;;;;;;8.32;4.68;;;;;;;17.55;67.08;100978.31;2085636;28;20033;-70
2023/09/17 03:28:49;;;;;;;10.52;4.80;;;;;;;17.55;67.11;100974.81;2100848;28;20052;-70
2023/09/17 03:29:51;;;;;;;8.90;4.15;;;;;;;17.54;67.11;100976.72;2098808;28;20041;-70
2023/09/17 03:30:53;;;;;;;7.63;5.00;;;;;;;17.54;67.30;100971.28;2081779;28;20876;-71
2023/09/17 03:31:57;;;;;;;8.00;4.90;;;;;;;17.52;67.28;100970.00;2082364;28;20101;-70
2023/09/17 03:32:59;;;;;;;7.57;4.10;;;;;;;17.52;67.14;100978.97;2090999;28;20034;-70
2023/09/17 03:34:21;;;;;;;11.77;4.88;;;;;;;17.52;67.37;100972.72;2093478;28;20025;-71
2023/09/17 03:35:51;;;;;;;9.18;4.43;;;;;;;17.50;67.36;100978.50;2092586;28;20048;-71
2023/09/17 03:36:55;;;;;;;8.07;4.30;;;;;;;17.51;67.35;100976.56;2091228;28;20168;-71
2023/09/17 03:38:01;;;;;;;6.25;4.22;;;;;;;17.50;67.35;100977.69;2082362;28;20033;-71
2023/09/17 03:39:05;;;;;;;7.10;4.22;;;;;;;17.50;67.53;100969.53;2075598;28;20174;-71
2023/09/17 03:40:12;;;;;;;10.45;4.65;;;;;;;17.49;67.61;100978.78;2082258;28;20026;-71
2023/09/17 03:41:18;;;;;;;8.25;4.50;;;;;;;17.48;67.75;100978.00;2084514;28;20124;-71
2023/09/17 03:42:20;;;;;;;7.75;4.18;;;;;;;17.49;67.54;100978.78;2098524;28;20029;-71
2023/09/17 03:43:38;;;;;;;10.07;4.65;;;;;;;17.47;67.65;100970.97;2098640;28;20040;-71
2023/09/17 03:44:41;;;;;;;12.65;4.72;;;;;;;17.48;67.70;100969.03;2101033;28;20064;-71
2023/09/17 03:45:46;;;;;;;8.93;4.82;;;;;;;17.47;67.79;100976.41;2082045;28;20050;-71
2023/09/17 03:46:50;;;;;;;11.35;4.80;;;;;;;17.45;67.68;100967.75;2073709;28;20045;-71
2023/09/17 03:48:12;;;;;;;7.15;4.95;;;;;;;17.45;67.92;100962.31;2074240;28;20112;-71
2023/09/17 03:49:14;;;;;;;7.28;4.55;;;;;;;17.45;67.87;100964.22;2095749;28;21212;-71
2023/09/17 03:50:18;;;;;;;5.97;4.40;;;;;;;17.44;68.06;100965.34;2081514;28;20022;-71
2023/09/17 03:51:20;;;;;;;7.28;4.55;;;;;;;17.44;67.99;100968.06;2082879;28;20812;-71
2023/09/17 03:52:29;;;;;;;12.32;4.88;;;;;;;17.44;67.93;100963.44;2090121;28;20026;-71
2023/09/17 03:53:43;;;;;;;11.63;4.78;;;;;;;17.45;68.08;100966.94;2100643;28;20025;-71
2023/09/17 03:54:46;;;;;;;10.07;4.45;;;;;;;17.44;68.10;100965.34;2081849;28;20943;-71
2023/09/17 03:55:47;;;;;;;8.15;4.63;;;;;;;17.44;68.00;100968.06;2082016;28;20038;-70
2023/09/17 03:56:49;;;;;;;8.48;4.45;;;;;;;17.43;68.23;100969.97;2098172;28;20967;-71
2023/09/17 03:57:56;;;;;;;8.50;4.70;;;;;;;17.42;68.32;100964.84;2082076;28;20947;-71
2023/09/17 03:59:03;;;;;;;8.57;4.57;;;;;;;17.42;68.15;100962.13;2091555;28;20072;-71
2023/09/17 04:00:14;;;;;;;8.25;4.85;;;;;;;17.43;68.14;100963.72;2090856;28;20041;-72
2023/09/17 04:01:16;;;;;;;6.63;4.30;;;;;;;17.42;68.35;100962.13;2086494;28;20939;-71
2023/09/17 04:02:20;;;;;;;10.30;4.43;;;;;;;17.42;68.21;100962.94;2081297;28;20797;-71
2023/09/17 04:03:21;;;;;;;9.25;4.70;;;;;;;17.40;68.35;100958.94;2081707;28;20026;-71
2023/09/17 04:04:23;;;;;;;7.07;4.70;;;;;;;17.42;68.35;100970.28;2090144;28;20044;-71
2023/09/17 04:05:25;;;;;;;7.60;4.57;;;;;;;17.41;68.62;100972.22;2089894;28;20042;-71
2023/09/17 04:06:34;;;;;;;9.35;4.97;;;;;;;17.40;68.51;100970.59;2098070;28;20112;-71
2023/09/17 04:07:41;;;;;;;8.55;4.82;;;;;;;17.41;68.75;100965.97;2100636;28;20789;-71
2023/09/17 04:08:45;;;;;;;9.80;5.30;;;;;;;17.40;68.63;100965.16;2106538;28;20078;-71
2023/09/17 04:09:48;;;;;;;8.98;4.20;;;;;;;17.41;68.82;100966.78;2098049;28;20036;-71
2023/09/17 04:10:53;;;;;;;7.45;4.40;;;;;;;17.41;68.90;100966.78;2081889;28;20172;-71
2023/09/17 04:11:55;;;;;;;6.95;3.90;;;;;;;17.43;68.92;100974.59;2090832;28;20855;-71
2023/09/17 04:12:57;;;;;;;7.28;4.30;;;;;;;17.43;68.69;100969.97;2089478;28;20036;-71
2023/09/17 04:14:00;;;;;;;7.57;4.10;;;;;;;17.43;68.91;100969.16;2081469;28;20030;-71
2023/09/17 04:15:12;;;;;;;8.68;4.15;;;;;;;17.42;68.90;100962.13;2082081;28;20891;-71
2023/09/17 04:16:20;;;;;;;9.27;4.75;;;;;;;17.42;68.78;100965.66;2093067;28;20040;-71
2023/09/17 04:17:22;;;;;;;8.85;4.47;;;;;;;17.41;68.72;100960.56;2100101;28;20913;-71
2023/09/17 04:18:26;;;;;;;10.13;4.68;;;;;;;17.42;68.90;100967.56;2090166;28;20825;-71
2023/09/17 04:19:31;;;;;;;6.95;4.00;;;;;;;17.41;69.02;100960.56;2096435;28;20867;-71
2023/09/17 04:20:32;;;;;;;7.32;4.45;;;;;;;17.41;68.91;100968.72;2097716;28;20040;-71
2023/09/17 04:21:34;;;;;;;7.53;4.10;;;;;;;17.41;68.92;100963.25;2087806;28;20033;-71
2023/09/17 04:22:42;;;;;;;6.93;4.22;;;;;;;17.39;68.97;100963.56;2090447;28;20048;-71
2023/09/17 04:23:44;;;;;;;10.77;4.70;;;;;;;17.38;69.26;100962.78;2093761;28;20235;-71
2023/09/17 04:24:47;;;;;;;9.88;4.57;;;;;;;17.37;69.33;100966.63;2090103;28;22024;-71
2023/09/17 04:25:49;;;;;;;11.50;4.50;;;;;;;17.36;69.51;100962.28;2079395;28;20131;-71
2023/09/17 04:26:53;;;;;;;9.32;4.85;;;;;;;17.35;69.25;100968.84;2090422;28;20134;-71
2023/09/17 04:27:55;;;;;;;9.50;4.80;;;;;;;17.35;69.47;100978.91;2098113;28;21262;-71
2023/09/17 04:29:01;;;;;;;9.05;4.78;;;;;;;17.34;69.42;100971.88;2091136;28;20030;-71
2023/09/17 04:30:05;;;;;;;8.77;4.75;;;;;;;17.32;69.39;100974.09;2098522;28;20027;-70
2023/09/17 04:31:07;;;;;;;7.00;4.50;;;;;;;17.32;69.06;100980.34;2098089;28;20064;-71
2023/09/17 04:32:12;;;;;;;7.80;4.28;;;;;;;17.31;69.35;100973.31;2096724;28;20028;-70
2023/09/17 04:33:22;;;;;;;11.38;4.57;;;;;;;17.31;69.43;100973.31;2080844;28;20034;-71
2023/09/17 04:34:24;;;;;;;9.27;4.75;;;;;;;17.32;69.58;100968.66;2097597;28;20033;-71
2023/09/17 04:35:25;;;;;;;9.35;5.30;;;;;;;17.30;69.42;100971.69;2097071;28;20025;-70
2023/09/17 04:36:28;;;;;;;8.88;5.40;;;;;;;17.30;69.53;100971.69;2088376;28;20041;-70
2023/09/17 04:37:30;;;;;;;9.07;4.78;;;;;;;17.30;69.67;100970.88;2080464;28;20052;-70
2023/09/17 04:38:33;;;;;;;10.63;4.90;;;;;;;17.29;69.48;100969.28;2096823;28;20084;-71
2023/09/17 04:39:36;;;;;;;8.48;4.90;;;;;;;17.29;69.70;100978.25;2096690;28;20029;-71
2023/09/17 04:40:42;;;;;;;7.63;4.47;;;;;;;17.29;69.71;100974.72;2081484;28;20041;-70
2023/09/17 04:41:45;;;;;;;9.48;4.88;;;;;;;17.29;69.73;100975.53;2086599;28;20091;-71
2023/09/17 04:42:47;;;;;;;8.27;4.63;;;;;;;17.29;69.72;100980.97;2097393;28;20043;-71
2023/09/17 04:43:53;;;;;;;9.75;4.63;;;;;;;17.30;69.69;100977.13;2089014;28;20037;-71
2023/09/17 04:44:55;;;;;;;10.40;4.60;;;;;;;17.31;69.84;100978.75;2081140;28;20054;-71
2023/09/17 04:45:58;;;;;;;9.95;5.32;;;;;;;17.31;69.90;100989.59;2097033;28;20990;-71
2023/09/17 04:47:06;;;;;;;;;;;;;;;17.32;69.76;100984.97;2089931;28;20029;-71
2023/09/17 04:48:16;;;;;;;7.80;4.70;;;;;;;17.30;69.93;100982.56;2090855;28;20044;-71
2023/09/17 04:49:21;;;;;;;11.25;4.57;;;;;;;17.35;70.04;100990.56;2098155;28;20017;-71
2023/09/17 04:50:25;;;;;;;8.65;4.63;;;;;;;17.36;70.01;100988.66;2081018;28;20334;-71
2023/09/17 04:51:29;;;;;;;8.75;4.55;;;;;;;17.36;69.81;100989.44;2098327;27;20056;-71
2023/09/17 04:52:31;;;;;;;7.45;4.13;;;;;;;17.37;69.88;100991.06;2096515;28;20088;-71
2023/09/17 04:53:40;;;;;;;6.60;4.13;;;;;;;17.39;70.15;100990.75;2098442;28;20021;-71
2023/09/17 04:54:48;;;;;;;10.20;5.40;;;;;;;17.39;70.00;100993.47;2114732;28;20031;-71
2023/09/17 04:56:00;;;;;;;8.77;4.65;;;;;;;17.39;69.84;100996.19;2099723;28;20025;-71
2023/09/17 04:57:07;;;;;;;8.43;4.95;;;;;;;17.41;69.79;100993.97;2094369;28;21223;-71
2023/09/17 04:58:09;;;;;;;11.02;4.93;;;;;;;17.41;69.88;101002.13;2090903;28;20826;-71
2023/09/17 04:59:12;;;;;;;9.30;5.05;;;;;;;17.41;69.86;100993.97;2098396;28;21466;-71
2023/09/17 05:00:15;;;;;;;10.32;5.82;;;;;;;17.42;69.78;101000.19;2098353;28;20068;-71
2023/09/17 05:01:19;;;;;;;9.20;4.80;;;;;;;17.42;69.67;101001.00;2093582;28;20037;-71
2023/09/17 05:02:21;;;;;;;9.60;5.40;;;;;;;17.41;70.09;101002.13;2089988;28;20041;-71